Terminal Aerodrome Forecast
Issued by NWS

Home | Current Version | Previous Version | Text Only | Print | Product List | Glossary On
Versions: 1 2 3 4 5 6 7 8 9 10 11 12 13 14 15 16 17 18
000
FTUS46 KOTX 060011 AAA
TAFMWH
TAF AMD
KMWH 060011Z 0600/0624 10005KT 1SM -SN SCT015 OVC025
     FM060300 10005KT 3SM -SN BKN015 OVC025
     FM061200 36010KT P6SM VCSH SCT025 OVC050=

USA.gov is the U.S. government's official web portal to all federal, state and local government web resources and services.